Terminal Aerodrome Forecast
Issued by NWS

Home | Current Version | Previous Version | Graphics & Text | Print | Product List | Glossary On
Versions: 1 2 3 4 5 6 7 8 9 10 11 12 13 14 15 16 17
346
FTUS43 KGRB 071136
TAFATW
TAF
KATW 071136Z 0712/0812 19012G16KT P6SM SCT025 BKN060
     FM080000 24007KT P6SM SCT020 BKN040
     FM080600 25006KT 4SM BR SCT008 OVC018
     FM080900 28008KT 4SM -SN BR OVC008=

USA.gov is the U.S. government's official web portal to all federal, state and local government web resources and services.